Willisburg, Kentucky
Current Conditions -  °F | °C
As of 3:15 AM on Monday 24 Nov 2014 (Local Time) from K6I2 Reporting Station
Broken Clouds Broken Clouds  
Wind Chill: 59°   Ceiling: 2100
Heat Index: 59°   Visibility: 10mi
Dew Point: 55°   Wind: 18mph
Humidity: 88%   Direction: 190°S
Pressure: 29.43"   Gusts: 26mph
Location:  37.81°N, 85.13°W
Report Text: K6I2 240815Z AUTO 19016G23KT 10SM BKN021 15/13 A2943 RMK AO2
Loading
Personal Weather Stations






























Interactive Weather Map New forecast layout! Learn more

10-Day Weather Forecast

Advertisements
Track Severe Weather on mobile